Terminal Aerodrome Forecast
Issued by NWS

Home | Current Version | Previous Version | Text Only | Print | Product List | Glossary On
Versions: 1 2 3 4 5 6 7 8 9 10 11 12 13 14 15 16 17
000
FTUS43 KJKL 220715 AAA
TAFSME
TAF AMD
KSME 220715Z 2207/2306 VRB05KT P6SM VCSH OVC005
     FM220900 VRB05KT P6SM SHRA SCT003 OVC007 WS020/21040KT
     FM221500 21008KT P6SM -SHRA OVC008
     FM221700 23007KT P6SM VCSH SCT003 OVC008
     FM230500 VRB04KT P6SM -SHRA BKN008=

USA.gov is the U.S. government's official web portal to all federal, state and local government web resources and services.